Gillette, Wyoming
Current Conditions -  °F | °C
As of 5:53 AM on Wednesday 26 Nov 2014 (Local Time) from KGCC Reporting Station
Overcast Overcast  
Wind Chill: 16°   Ceiling: 6000
Heat Index: 25°   Visibility: 8mi
Dew Point: 22°   Wind: 8mph
Humidity: 88%   Direction: 280°W
Pressure: 30.15"   Gusts: NA
Location:  44.29°N, 105.5°W
Report Text: KGCC 261253Z AUTO 28007KT 8SM OVC060 M04/M06 A3015 RMK AO2 SLP245 T10391056 TSNO
Loading
Personal Weather Stations






























Interactive Weather Map New forecast layout! Learn more

10-Day Weather Forecast

Advertisements
Track Severe Weather on mobile